Katunayake, Sri Lanka
Current Conditions -  °F | °C
As of 6:10 PM on Friday 24 Oct 2014 (Local Time) from VCBI Reporting Station
Scattered Clouds Scattered Clouds  
Wind Chill: 84°   Ceiling: Unl
Heat Index: 91°   Visibility: 6mi
Dew Point: 73°   Wind: 5mph
Humidity: 70%   Direction: 280°W
Pressure: 29.8"   Gusts: NA
Location:  7.17°N, 79.88°E
Report Text: VCBI 241210Z 28004KT 220V350 9999 SCT016 SCT020CB 29/23 Q1009 NOSIG
Loading
Personal Weather Stations






























Interactive Weather Map
Tropical Storm Tracking
New forecast layout! Learn more

10-Day Weather Forecast

Advertisements
Track Severe Weather on mobile